sensor_id;sensor_type;location;lat;lon;timestamp;temperature;humidity
7163;DHT22;3623;47.098;15.446;2023-02-04T00:01:40;4.60;99.90
7163;DHT22;3623;47.098;15.446;2023-02-04T00:04:07;4.60;99.90
7163;DHT22;3623;47.098;15.446;2023-02-04T00:06:34;4.60;99.90
7163;DHT22;3623;47.098;15.446;2023-02-04T00:09:01;4.60;99.90
7163;DHT22;3623;47.098;15.446;2023-02-04T00:11:28;4.60;99.90
7163;DHT22;3623;47.098;15.446;2023-02-04T00:13:55;4.60;99.90
7163;DHT22;3623;47.098;15.446;2023-02-04T00:16:24;4.60;99.90
7163;DHT22;3623;47.098;15.446;2023-02-04T00:18:51;4.70;99.90
7163;DHT22;3623;47.098;15.446;2023-02-04T00:21:18;4.60;99.90
7163;DHT22;3623;47.098;15.446;2023-02-04T00:23:45;4.60;99.90
7163;DHT22;3623;47.098;15.446;2023-02-04T00:26:12;4.50;99.90
7163;DHT22;3623;47.098;15.446;2023-02-04T00:28:39;4.50;99.90
7163;DHT22;3623;47.098;15.446;2023-02-04T00:31:06;4.60;99.90
7163;DHT22;3623;47.098;15.446;2023-02-04T00:33:34;4.60;99.90
7163;DHT22;3623;47.098;15.446;2023-02-04T00:36:01;4.50;99.90
7163;DHT22;3623;47.098;15.446;2023-02-04T00:38:29;4.50;99.90
7163;DHT22;3623;47.098;15.446;2023-02-04T00:40:56;4.50;99.90
7163;DHT22;3623;47.098;15.446;2023-02-04T00:43:23;4.70;99.90
7163;DHT22;3623;47.098;15.446;2023-02-04T00:45:50;4.70;99.90
7163;DHT22;3623;47.098;15.446;2023-02-04T00:48:17;4.70;99.90
7163;DHT22;3623;47.098;15.446;2023-02-04T00:50:45;4.70;99.90
7163;DHT22;3623;47.098;15.446;2023-02-04T00:53:12;4.70;99.90
7163;DHT22;3623;47.098;15.446;2023-02-04T00:55:39;4.80;99.90
7163;DHT22;3623;47.098;15.446;2023-02-04T00:58:06;4.80;99.90
7163;DHT22;3623;47.098;15.446;2023-02-04T01:00:34;4.70;99.90
7163;DHT22;3623;47.098;15.446;2023-02-04T01:03:01;4.70;99.90
7163;DHT22;3623;47.098;15.446;2023-02-04T01:05:28;4.60;99.90
7163;DHT22;3623;47.098;15.446;2023-02-04T01:07:56;4.60;99.90
7163;DHT22;3623;47.098;15.446;2023-02-04T01:10:23;4.80;99.90
7163;DHT22;3623;47.098;15.446;2023-02-04T01:12:51;4.80;99.90
7163;DHT22;3623;47.098;15.446;2023-02-04T01:15:18;4.80;99.90
7163;DHT22;3623;47.098;15.446;2023-02-04T01:17:47;4.70;99.90
7163;DHT22;3623;47.098;15.446;2023-02-04T01:20:14;4.70;99.90
7163;DHT22;3623;47.098;15.446;2023-02-04T01:22:41;4.70;99.90
7163;DHT22;3623;47.098;15.446;2023-02-04T01:25:10;4.70;99.90
7163;DHT22;3623;47.098;15.446;2023-02-04T01:27:37;4.80;99.90
7163;DHT22;3623;47.098;15.446;2023-02-04T01:30:05;4.80;99.90
7163;DHT22;3623;47.098;15.446;2023-02-04T01:32:32;4.80;99.90
7163;DHT22;3623;47.098;15.446;2023-02-04T01:34:59;4.90;99.90
7163;DHT22;3623;47.098;15.446;2023-02-04T01:37:26;4.80;99.90
7163;DHT22;3623;47.098;15.446;2023-02-04T01:39:53;4.80;99.90
7163;DHT22;3623;47.098;15.446;2023-02-04T01:42:21;4.80;99.90
7163;DHT22;3623;47.098;15.446;2023-02-04T01:44:49;4.90;99.90
7163;DHT22;3623;47.098;15.446;2023-02-04T01:47:16;4.90;99.90
7163;DHT22;3623;47.098;15.446;2023-02-04T01:49:45;4.90;99.90
7163;DHT22;3623;47.098;15.446;2023-02-04T01:52:13;5.00;99.90
7163;DHT22;3623;47.098;15.446;2023-02-04T01:54:40;5.00;99.90
7163;DHT22;3623;47.098;15.446;2023-02-04T01:57:08;5.10;99.90
7163;DHT22;3623;47.098;15.446;2023-02-04T01:59:42;5.10;99.90
7163;DHT22;3623;47.098;15.446;2023-02-04T02:02:38;5.00;99.90
7163;DHT22;3623;47.098;15.446;2023-02-04T02:05:07;5.00;99.90
7163;DHT22;3623;47.098;15.446;2023-02-04T02:07:35;4.90;99.90
7163;DHT22;3623;47.098;15.446;2023-02-04T02:10:04;5.00;99.90
7163;DHT22;3623;47.098;15.446;2023-02-04T02:12:31;5.00;99.90
7163;DHT22;3623;47.098;15.446;2023-02-04T02:15:00;5.10;99.90
7163;DHT22;3623;47.098;15.446;2023-02-04T02:17:27;5.10;99.90
7163;DHT22;3623;47.098;15.446;2023-02-04T02:19:54;5.00;99.90
7163;DHT22;3623;47.098;15.446;2023-02-04T02:22:24;5.00;99.90
7163;DHT22;3623;47.098;15.446;2023-02-04T02:24:55;5.10;99.90
7163;DHT22;3623;47.098;15.446;2023-02-04T02:27:22;5.10;99.90
7163;DHT22;3623;47.098;15.446;2023-02-04T02:29:49;5.00;99.90
7163;DHT22;3623;47.098;15.446;2023-02-04T02:32:17;4.90;99.90
7163;DHT22;3623;47.098;15.446;2023-02-04T02:34:45;4.90;99.90
7163;DHT22;3623;47.098;15.446;2023-02-04T02:37:12;4.90;99.90
7163;DHT22;3623;47.098;15.446;2023-02-04T02:39:40;4.90;99.90
7163;DHT22;3623;47.098;15.446;2023-02-04T02:42:13;4.90;99.90
7163;DHT22;3623;47.098;15.446;2023-02-04T02:44:41;5.00;99.90
7163;DHT22;3623;47.098;15.446;2023-02-04T02:47:12;5.00;99.90
7163;DHT22;3623;47.098;15.446;2023-02-04T02:49:41;4.90;99.90
7163;DHT22;3623;47.098;15.446;2023-02-04T02:52:10;4.80;99.90
7163;DHT22;3623;47.098;15.446;2023-02-04T02:54:38;4.80;99.90
7163;DHT22;3623;47.098;15.446;2023-02-04T02:57:12;4.80;99.90
7163;DHT22;3623;47.098;15.446;2023-02-04T02:59:40;4.80;99.90
7163;DHT22;3623;47.098;15.446;2023-02-04T03:02:08;4.80;99.90
7163;DHT22;3623;47.098;15.446;2023-02-04T03:04:40;4.70;99.90
7163;DHT22;3623;47.098;15.446;2023-02-04T03:07:09;4.70;99.90
7163;DHT22;3623;47.098;15.446;2023-02-04T03:09:36;4.70;99.90
7163;DHT22;3623;47.098;15.446;2023-02-04T03:12:04;4.70;99.90
7163;DHT22;3623;47.098;15.446;2023-02-04T03:14:34;4.80;99.90
7163;DHT22;3623;47.098;15.446;2023-02-04T03:17:04;4.70;99.90
7163;DHT22;3623;47.098;15.446;2023-02-04T03:19:31;4.60;99.90
7163;DHT22;3623;47.098;15.446;2023-02-04T03:22:01;4.60;99.90
7163;DHT22;3623;47.098;15.446;2023-02-04T03:24:29;4.60;99.90
7163;DHT22;3623;47.098;15.446;2023-02-04T03:26:57;4.60;99.90
7163;DHT22;3623;47.098;15.446;2023-02-04T03:29:24;4.60;99.90
7163;DHT22;3623;47.098;15.446;2023-02-04T03:31:52;4.60;99.90
7163;DHT22;3623;47.098;15.446;2023-02-04T03:34:20;4.60;99.90
7163;DHT22;3623;47.098;15.446;2023-02-04T03:36:47;4.50;99.90
7163;DHT22;3623;47.098;15.446;2023-02-04T03:39:14;4.60;99.90
7163;DHT22;3623;47.098;15.446;2023-02-04T03:41:41;4.60;99.90
7163;DHT22;3623;47.098;15.446;2023-02-04T03:44:08;4.60;99.90
7163;DHT22;3623;47.098;15.446;2023-02-04T03:46:35;4.60;99.90
7163;DHT22;3623;47.098;15.446;2023-02-04T03:49:03;4.50;99.90
7163;DHT22;3623;47.098;15.446;2023-02-04T03:51:30;4.60;99.90
7163;DHT22;3623;47.098;15.446;2023-02-04T03:53:57;4.60;99.90
7163;DHT22;3623;47.098;15.446;2023-02-04T03:56:24;4.50;99.90
7163;DHT22;3623;47.098;15.446;2023-02-04T03:58:51;4.60;99.90
7163;DHT22;3623;47.098;15.446;2023-02-04T04:01:18;4.60;99.90
7163;DHT22;3623;47.098;15.446;2023-02-04T04:03:46;4.60;99.90
7163;DHT22;3623;47.098;15.446;2023-02-04T04:06:14;4.60;99.90
7163;DHT22;3623;47.098;15.446;2023-02-04T04:08:41;4.60;99.90
7163;DHT22;3623;47.098;15.446;2023-02-04T04:11:08;4.70;99.90
7163;DHT22;3623;47.098;15.446;2023-02-04T04:13:35;4.70;99.90
7163;DHT22;3623;47.098;15.446;2023-02-04T04:16:02;4.80;99.90
7163;DHT22;3623;47.098;15.446;2023-02-04T04:18:29;4.70;99.90
7163;DHT22;3623;47.098;15.446;2023-02-04T04:20:57;4.70;99.90
7163;DHT22;3623;47.098;15.446;2023-02-04T04:23:25;4.70;99.90
7163;DHT22;3623;47.098;15.446;2023-02-04T04:25:53;4.60;99.90
7163;DHT22;3623;47.098;15.446;2023-02-04T04:28:20;4.60;99.90
7163;DHT22;3623;47.098;15.446;2023-02-04T04:30:47;4.60;99.90
7163;DHT22;3623;47.098;15.446;2023-02-04T04:33:14;4.70;99.90
7163;DHT22;3623;47.098;15.446;2023-02-04T04:35:41;4.70;99.90
7163;DHT22;3623;47.098;15.446;2023-02-04T04:38:08;4.60;99.90
7163;DHT22;3623;47.098;15.446;2023-02-04T04:40:36;4.60;99.90
7163;DHT22;3623;47.098;15.446;2023-02-04T04:43:03;4.60;99.90
7163;DHT22;3623;47.098;15.446;2023-02-04T04:45:30;4.70;99.90
7163;DHT22;3623;47.098;15.446;2023-02-04T04:47:57;4.60;99.90
7163;DHT22;3623;47.098;15.446;2023-02-04T04:50:24;4.70;99.90
7163;DHT22;3623;47.098;15.446;2023-02-04T04:52:51;4.60;99.90
7163;DHT22;3623;47.098;15.446;2023-02-04T04:55:19;4.60;99.90
7163;DHT22;3623;47.098;15.446;2023-02-04T04:57:47;4.50;99.90
7163;DHT22;3623;47.098;15.446;2023-02-04T05:00:16;4.60;99.90
7163;DHT22;3623;47.098;15.446;2023-02-04T05:02:43;4.50;99.90
7163;DHT22;3623;47.098;15.446;2023-02-04T05:05:11;4.50;99.90
7163;DHT22;3623;47.098;15.446;2023-02-04T05:07:38;4.50;99.90
7163;DHT22;3623;47.098;15.446;2023-02-04T05:10:06;4.50;99.90
7163;DHT22;3623;47.098;15.446;2023-02-04T05:12:33;4.50;99.90
7163;DHT22;3623;47.098;15.446;2023-02-04T05:15:01;4.50;99.90
7163;DHT22;3623;47.098;15.446;2023-02-04T05:17:29;4.50;99.90
7163;DHT22;3623;47.098;15.446;2023-02-04T05:19:56;4.50;99.90
7163;DHT22;3623;47.098;15.446;2023-02-04T05:22:23;4.40;99.90
7163;DHT22;3623;47.098;15.446;2023-02-04T05:24:50;4.40;99.90
7163;DHT22;3623;47.098;15.446;2023-02-04T05:27:17;4.40;99.90
7163;DHT22;3623;47.098;15.446;2023-02-04T05:29:44;4.40;99.90
7163;DHT22;3623;47.098;15.446;2023-02-04T05:32:13;4.30;99.90
7163;DHT22;3623;47.098;15.446;2023-02-04T05:34:40;4.30;99.90
7163;DHT22;3623;47.098;15.446;2023-02-04T05:37:07;4.20;99.90
7163;DHT22;3623;47.098;15.446;2023-02-04T05:39:34;4.20;99.90
7163;DHT22;3623;47.098;15.446;2023-02-04T05:42:01;4.10;99.90
7163;DHT22;3623;47.098;15.446;2023-02-04T05:44:28;4.10;99.90
7163;DHT22;3623;47.098;15.446;2023-02-04T05:46:55;4.00;99.90
7163;DHT22;3623;47.098;15.446;2023-02-04T05:49:23;4.00;99.90
7163;DHT22;3623;47.098;15.446;2023-02-04T05:51:51;3.90;99.90
7163;DHT22;3623;47.098;15.446;2023-02-04T05:54:18;3.90;99.90
7163;DHT22;3623;47.098;15.446;2023-02-04T05:56:45;3.90;99.90
7163;DHT22;3623;47.098;15.446;2023-02-04T05:59:13;3.90;99.90
7163;DHT22;3623;47.098;15.446;2023-02-04T06:01:40;3.80;99.90
7163;DHT22;3623;47.098;15.446;2023-02-04T06:04:07;3.80;99.90
7163;DHT22;3623;47.098;15.446;2023-02-04T06:06:35;3.80;99.90
7163;DHT22;3623;47.098;15.446;2023-02-04T06:09:03;3.90;99.90
7163;DHT22;3623;47.098;15.446;2023-02-04T06:11:30;3.80;99.90
7163;DHT22;3623;47.098;15.446;2023-02-04T06:13:57;3.80;99.90
7163;DHT22;3623;47.098;15.446;2023-02-04T06:16:25;3.80;99.90
7163;DHT22;3623;47.098;15.446;2023-02-04T06:18:52;3.80;99.90
7163;DHT22;3623;47.098;15.446;2023-02-04T06:21:19;3.80;99.90
7163;DHT22;3623;47.098;15.446;2023-02-04T06:23:47;3.80;99.90
7163;DHT22;3623;47.098;15.446;2023-02-04T06:26:14;3.90;99.90
7163;DHT22;3623;47.098;15.446;2023-02-04T06:28:42;3.90;99.90
7163;DHT22;3623;47.098;15.446;2023-02-04T06:31:09;3.90;99.90
7163;DHT22;3623;47.098;15.446;2023-02-04T06:33:36;3.90;99.90
7163;DHT22;3623;47.098;15.446;2023-02-04T06:36:03;4.00;99.90
7163;DHT22;3623;47.098;15.446;2023-02-04T06:38:30;3.90;99.90
7163;DHT22;3623;47.098;15.446;2023-02-04T06:40:59;4.00;99.90
7163;DHT22;3623;47.098;15.446;2023-02-04T06:43:26;4.00;99.90
7163;DHT22;3623;47.098;15.446;2023-02-04T06:45:53;4.00;99.90
7163;DHT22;3623;47.098;15.446;2023-02-04T06:48:20;4.10;99.90
7163;DHT22;3623;47.098;15.446;2023-02-04T06:50:47;4.10;99.90
7163;DHT22;3623;47.098;15.446;2023-02-04T06:53:14;4.10;99.90
7163;DHT22;3623;47.098;15.446;2023-02-04T06:55:41;4.00;99.90
7163;DHT22;3623;47.098;15.446;2023-02-04T06:58:10;3.90;99.90
7163;DHT22;3623;47.098;15.446;2023-02-04T07:00:37;3.80;99.90
7163;DHT22;3623;47.098;15.446;2023-02-04T07:03:04;3.60;99.90
7163;DHT22;3623;47.098;15.446;2023-02-04T07:05:32;3.40;99.90
7163;DHT22;3623;47.098;15.446;2023-02-04T07:07:59;3.10;99.90
7163;DHT22;3623;47.098;15.446;2023-02-04T07:10:26;3.00;99.90
7163;DHT22;3623;47.098;15.446;2023-02-04T07:12:53;2.90;99.90
7163;DHT22;3623;47.098;15.446;2023-02-04T07:15:22;3.00;99.90
7163;DHT22;3623;47.098;15.446;2023-02-04T07:17:49;2.70;99.90
7163;DHT22;3623;47.098;15.446;2023-02-04T07:20:17;2.70;99.90
7163;DHT22;3623;47.098;15.446;2023-02-04T07:22:44;2.60;99.90
7163;DHT22;3623;47.098;15.446;2023-02-04T07:25:11;2.70;99.90
7163;DHT22;3623;47.098;15.446;2023-02-04T07:27:39;2.70;99.90
7163;DHT22;3623;47.098;15.446;2023-02-04T07:30:08;2.80;99.90
7163;DHT22;3623;47.098;15.446;2023-02-04T07:32:36;2.80;99.90
7163;DHT22;3623;47.098;15.446;2023-02-04T07:35:04;2.80;99.90
7163;DHT22;3623;47.098;15.446;2023-02-04T07:37:31;2.90;99.90
7163;DHT22;3623;47.098;15.446;2023-02-04T07:39:58;2.80;99.90
7163;DHT22;3623;47.098;15.446;2023-02-04T07:42:25;2.90;99.90
7163;DHT22;3623;47.098;15.446;2023-02-04T07:44:52;2.80;99.90
7163;DHT22;3623;47.098;15.446;2023-02-04T07:47:19;2.80;99.90
7163;DHT22;3623;47.098;15.446;2023-02-04T07:49:48;2.70;99.90
7163;DHT22;3623;47.098;15.446;2023-02-04T07:52:15;2.70;99.90
7163;DHT22;3623;47.098;15.446;2023-02-04T07:54:42;2.60;99.90
7163;DHT22;3623;47.098;15.446;2023-02-04T07:57:09;2.60;99.90
7163;DHT22;3623;47.098;15.446;2023-02-04T07:59:36;2.50;99.90
7163;DHT22;3623;47.098;15.446;2023-02-04T08:02:03;2.50;99.90
7163;DHT22;3623;47.098;15.446;2023-02-04T08:04:30;2.50;99.90
7163;DHT22;3623;47.098;15.446;2023-02-04T08:06:59;2.60;99.90
7163;DHT22;3623;47.098;15.446;2023-02-04T08:09:26;2.50;99.90
7163;DHT22;3623;47.098;15.446;2023-02-04T08:11:53;2.50;99.90
7163;DHT22;3623;47.098;15.446;2023-02-04T08:14:20;2.50;99.90
7163;DHT22;3623;47.098;15.446;2023-02-04T08:16:47;2.60;99.90
7163;DHT22;3623;47.098;15.446;2023-02-04T08:19:14;2.60;99.90
7163;DHT22;3623;47.098;15.446;2023-02-04T08:21:43;3.00;99.90
7163;DHT22;3623;47.098;15.446;2023-02-04T08:24:12;2.80;99.90
7163;DHT22;3623;47.098;15.446;2023-02-04T08:26:40;2.90;99.90
7163;DHT22;3623;47.098;15.446;2023-02-04T08:29:07;3.10;99.90
7163;DHT22;3623;47.098;15.446;2023-02-04T08:31:35;3.40;99.90
7163;DHT22;3623;47.098;15.446;2023-02-04T08:34:03;3.50;99.90
7163;DHT22;3623;47.098;15.446;2023-02-04T08:36:30;3.70;99.90
7163;DHT22;3623;47.098;15.446;2023-02-04T08:38:57;3.80;99.90
7163;DHT22;3623;47.098;15.446;2023-02-04T08:41:26;3.90;99.90
7163;DHT22;3623;47.098;15.446;2023-02-04T08:43:53;3.90;99.90
7163;DHT22;3623;47.098;15.446;2023-02-04T08:46:20;4.10;99.90
7163;DHT22;3623;47.098;15.446;2023-02-04T08:48:47;4.30;99.90
7163;DHT22;3623;47.098;15.446;2023-02-04T08:51:14;4.30;99.90
7163;DHT22;3623;47.098;15.446;2023-02-04T08:53:41;4.20;99.90
7163;DHT22;3623;47.098;15.446;2023-02-04T08:56:08;4.20;99.90
7163;DHT22;3623;47.098;15.446;2023-02-04T08:58:42;4.30;99.90
7163;DHT22;3623;47.098;15.446;2023-02-04T09:01:09;4.30;99.90
7163;DHT22;3623;47.098;15.446;2023-02-04T09:03:37;4.40;99.90
7163;DHT22;3623;47.098;15.446;2023-02-04T09:06:05;4.10;99.90
7163;DHT22;3623;47.098;15.446;2023-02-04T09:08:32;4.40;99.90
7163;DHT22;3623;47.098;15.446;2023-02-04T09:10:59;4.30;99.90
7163;DHT22;3623;47.098;15.446;2023-02-04T09:13:26;4.30;99.90
7163;DHT22;3623;47.098;15.446;2023-02-04T09:15:55;4.40;99.90
7163;DHT22;3623;47.098;15.446;2023-02-04T09:18:22;4.50;99.90
7163;DHT22;3623;47.098;15.446;2023-02-04T09:20:51;4.50;99.90
7163;DHT22;3623;47.098;15.446;2023-02-04T09:23:18;4.60;99.90
7163;DHT22;3623;47.098;15.446;2023-02-04T09:25:46;4.70;99.90
7163;DHT22;3623;47.098;15.446;2023-02-04T09:28:15;4.90;99.90
7163;DHT22;3623;47.098;15.446;2023-02-04T09:30:44;5.10;99.90
7163;DHT22;3623;47.098;15.446;2023-02-04T09:33:14;5.30;99.90
7163;DHT22;3623;47.098;15.446;2023-02-04T09:35:42;5.40;99.90
7163;DHT22;3623;47.098;15.446;2023-02-04T09:38:09;5.60;99.90
7163;DHT22;3623;47.098;15.446;2023-02-04T09:40:41;5.40;99.90
7163;DHT22;3623;47.098;15.446;2023-02-04T09:43:12;5.20;99.90
7163;DHT22;3623;47.098;15.446;2023-02-04T09:45:41;5.10;99.90
7163;DHT22;3623;47.098;15.446;2023-02-04T09:48:11;4.90;99.90
7163;DHT22;3623;47.098;15.446;2023-02-04T09:50:40;4.90;99.90
7163;DHT22;3623;47.098;15.446;2023-02-04T09:53:12;5.00;99.90
7163;DHT22;3623;47.098;15.446;2023-02-04T09:55:42;5.10;99.90
7163;DHT22;3623;47.098;15.446;2023-02-04T09:58:13;5.10;99.90
7163;DHT22;3623;47.098;15.446;2023-02-04T10:00:42;5.30;99.90
7163;DHT22;3623;47.098;15.446;2023-02-04T10:03:13;5.40;99.90
7163;DHT22;3623;47.098;15.446;2023-02-04T10:05:43;5.80;99.90
7163;DHT22;3623;47.098;15.446;2023-02-04T10:08:13;6.00;99.90
7163;DHT22;3623;47.098;15.446;2023-02-04T10:10:41;5.90;99.90
7163;DHT22;3623;47.098;15.446;2023-02-04T10:13:16;5.50;99.90
7163;DHT22;3623;47.098;15.446;2023-02-04T10:15:44;4.90;99.90
7163;DHT22;3623;47.098;15.446;2023-02-04T10:18:14;4.70;99.90
7163;DHT22;3623;47.098;15.446;2023-02-04T10:20:46;4.60;99.90
7163;DHT22;3623;47.098;15.446;2023-02-04T10:23:13;4.40;99.90
7163;DHT22;3623;47.098;15.446;2023-02-04T10:25:40;4.40;99.90
7163;DHT22;3623;47.098;15.446;2023-02-04T10:28:07;4.30;99.90
7163;DHT22;3623;47.098;15.446;2023-02-04T10:30:38;4.20;99.90
7163;DHT22;3623;47.098;15.446;2023-02-04T10:33:13;4.10;99.90
7163;DHT22;3623;47.098;15.446;2023-02-04T10:35:47;4.20;99.90
7163;DHT22;3623;47.098;15.446;2023-02-04T10:38:15;3.90;99.90
7163;DHT22;3623;47.098;15.446;2023-02-04T10:40:42;3.90;99.90
7163;DHT22;3623;47.098;15.446;2023-02-04T10:43:14;4.20;99.90
7163;DHT22;3623;47.098;15.446;2023-02-04T10:45:45;4.30;99.90
7163;DHT22;3623;47.098;15.446;2023-02-04T10:48:17;4.30;99.90
7163;DHT22;3623;47.098;15.446;2023-02-04T10:50:47;4.10;99.90
7163;DHT22;3623;47.098;15.446;2023-02-04T10:53:16;4.00;99.90
7163;DHT22;3623;47.098;15.446;2023-02-04T10:56:01;4.00;99.90
7163;DHT22;3623;47.098;15.446;2023-02-04T10:58:29;3.90;99.90
7163;DHT22;3623;47.098;15.446;2023-02-04T11:00:57;4.40;99.90
7163;DHT22;3623;47.098;15.446;2023-02-04T11:03:26;4.30;99.90
7163;DHT22;3623;47.098;15.446;2023-02-04T11:05:58;4.20;99.90
7163;DHT22;3623;47.098;15.446;2023-02-04T11:08:30;4.30;99.90
7163;DHT22;3623;47.098;15.446;2023-02-04T11:10:59;4.40;99.90
7163;DHT22;3623;47.098;15.446;2023-02-04T11:13:39;4.30;99.90
7163;DHT22;3623;47.098;15.446;2023-02-04T11:16:10;4.90;99.90
7163;DHT22;3623;47.098;15.446;2023-02-04T11:18:47;5.50;99.90
7163;DHT22;3623;47.098;15.446;2023-02-04T11:21:24;5.50;99.90
7163;DHT22;3623;47.098;15.446;2023-02-04T11:24:04;6.10;99.90
7163;DHT22;3623;47.098;15.446;2023-02-04T11:26:32;6.70;99.90
7163;DHT22;3623;47.098;15.446;2023-02-04T11:29:25;7.70;99.90
7163;DHT22;3623;47.098;15.446;2023-02-04T11:32:00;8.20;99.90
7163;DHT22;3623;47.098;15.446;2023-02-04T11:34:31;7.30;98.70
7163;DHT22;3623;47.098;15.446;2023-02-04T11:39:59;6.40;99.20
7163;DHT22;3623;47.098;15.446;2023-02-04T11:42:30;6.40;98.20
7163;DHT22;3623;47.098;15.446;2023-02-04T11:45:00;5.70;97.80
7163;DHT22;3623;47.098;15.446;2023-02-04T11:47:34;5.30;97.50
7163;DHT22;3623;47.098;15.446;2023-02-04T11:50:08;4.70;97.70
7163;DHT22;3623;47.098;15.446;2023-02-04T11:52:39;4.40;97.40
7163;DHT22;3623;47.098;15.446;2023-02-04T11:55:08;4.20;97.40
7163;DHT22;3623;47.098;15.446;2023-02-04T11:57:40;4.70;98.00
7163;DHT22;3623;47.098;15.446;2023-02-04T12:00:13;5.50;97.90
7163;DHT22;3623;47.098;15.446;2023-02-04T12:02:43;6.80;96.80
7163;DHT22;3623;47.098;15.446;2023-02-04T12:05:12;6.90;95.70
7163;DHT22;3623;47.098;15.446;2023-02-04T12:07:42;6.80;96.10
7163;DHT22;3623;47.098;15.446;2023-02-04T12:10:12;6.80;96.10
7163;DHT22;3623;47.098;15.446;2023-02-04T12:12:48;6.80;95.30
7163;DHT22;3623;47.098;15.446;2023-02-04T12:15:20;6.60;94.30
7163;DHT22;3623;47.098;15.446;2023-02-04T12:18:00;6.30;94.20
7163;DHT22;3623;47.098;15.446;2023-02-04T12:20:27;6.60;94.10
7163;DHT22;3623;47.098;15.446;2023-02-04T12:22:56;7.10;93.50
7163;DHT22;3623;47.098;15.446;2023-02-04T12:25:23;7.50;92.30
7163;DHT22;3623;47.098;15.446;2023-02-04T12:27:51;7.50;92.20
7163;DHT22;3623;47.098;15.446;2023-02-04T12:30:19;7.70;91.90
7163;DHT22;3623;47.098;15.446;2023-02-04T12:32:46;7.90;91.60
7163;DHT22;3623;47.098;15.446;2023-02-04T12:35:14;7.20;91.50
7163;DHT22;3623;47.098;15.446;2023-02-04T12:37:41;6.60;92.40
7163;DHT22;3623;47.098;15.446;2023-02-04T12:40:13;6.20;92.90
7163;DHT22;3623;47.098;15.446;2023-02-04T12:42:41;6.20;92.70
7163;DHT22;3623;47.098;15.446;2023-02-04T12:45:09;5.60;92.80
7163;DHT22;3623;47.098;15.446;2023-02-04T12:47:36;5.30;93.70
7163;DHT22;3623;47.098;15.446;2023-02-04T12:50:04;5.30;94.00
7163;DHT22;3623;47.098;15.446;2023-02-04T12:52:31;5.00;94.00
7163;DHT22;3623;47.098;15.446;2023-02-04T12:55:02;4.80;93.80
7163;DHT22;3623;47.098;15.446;2023-02-04T12:57:31;5.00;94.30
7163;DHT22;3623;47.098;15.446;2023-02-04T12:59:59;5.40;94.20
7163;DHT22;3623;47.098;15.446;2023-02-04T13:02:26;5.40;93.80
7163;DHT22;3623;47.098;15.446;2023-02-04T13:04:53;5.30;94.10
7163;DHT22;3623;47.098;15.446;2023-02-04T13:07:21;5.80;94.90
7163;DHT22;3623;47.098;15.446;2023-02-04T13:09:48;6.10;93.40
7163;DHT22;3623;47.098;15.446;2023-02-04T13:12:15;5.80;94.20
7163;DHT22;3623;47.098;15.446;2023-02-04T13:14:44;5.90;93.70
7163;DHT22;3623;47.098;15.446;2023-02-04T13:17:11;5.80;93.50
7163;DHT22;3623;47.098;15.446;2023-02-04T13:19:38;5.40;93.30
7163;DHT22;3623;47.098;15.446;2023-02-04T13:22:05;5.20;94.40
7163;DHT22;3623;47.098;15.446;2023-02-04T13:24:32;4.70;94.20
7163;DHT22;3623;47.098;15.446;2023-02-04T13:26:59;4.60;95.10
7163;DHT22;3623;47.098;15.446;2023-02-04T13:29:26;4.60;95.00
7163;DHT22;3623;47.098;15.446;2023-02-04T13:31:55;4.60;95.40
7163;DHT22;3623;47.098;15.446;2023-02-04T13:34:22;4.50;95.40
7163;DHT22;3623;47.098;15.446;2023-02-04T13:36:49;4.50;95.90
7163;DHT22;3623;47.098;15.446;2023-02-04T13:39:16;4.50;96.10
7163;DHT22;3623;47.098;15.446;2023-02-04T13:41:43;4.50;96.30
7163;DHT22;3623;47.098;15.446;2023-02-04T13:44:10;4.40;95.60
7163;DHT22;3623;47.098;15.446;2023-02-04T13:46:38;4.40;96.00
7163;DHT22;3623;47.098;15.446;2023-02-04T13:49:06;4.40;96.20
7163;DHT22;3623;47.098;15.446;2023-02-04T13:51:33;4.30;96.30
7163;DHT22;3623;47.098;15.446;2023-02-04T13:54:00;4.30;96.40
7163;DHT22;3623;47.098;15.446;2023-02-04T13:56:27;4.30;96.60
7163;DHT22;3623;47.098;15.446;2023-02-04T13:58:57;4.30;96.60
7163;DHT22;3623;47.098;15.446;2023-02-04T14:01:24;4.30;96.60
7163;DHT22;3623;47.098;15.446;2023-02-04T14:03:51;4.20;96.60
7163;DHT22;3623;47.098;15.446;2023-02-04T14:06:20;4.10;97.00
7163;DHT22;3623;47.098;15.446;2023-02-04T14:08:48;4.10;96.90
7163;DHT22;3623;47.098;15.446;2023-02-04T14:11:15;4.00;96.80
7163;DHT22;3623;47.098;15.446;2023-02-04T14:13:42;4.00;97.10
7163;DHT22;3623;47.098;15.446;2023-02-04T14:16:09;3.90;96.90
7163;DHT22;3623;47.098;15.446;2023-02-04T14:18:36;3.90;97.30
7163;DHT22;3623;47.098;15.446;2023-02-04T14:21:03;3.80;97.00
7163;DHT22;3623;47.098;15.446;2023-02-04T14:23:32;3.80;97.30
7163;DHT22;3623;47.098;15.446;2023-02-04T14:25:59;3.90;97.50
7163;DHT22;3623;47.098;15.446;2023-02-04T14:28:26;3.80;97.20
7163;DHT22;3623;47.098;15.446;2023-02-04T14:30:53;3.70;96.60
7163;DHT22;3623;47.098;15.446;2023-02-04T14:33:20;3.70;97.20
7163;DHT22;3623;47.098;15.446;2023-02-04T14:35:47;3.70;96.90
7163;DHT22;3623;47.098;15.446;2023-02-04T14:38:14;3.70;97.30
7163;DHT22;3623;47.098;15.446;2023-02-04T14:40:44;3.80;97.30
7163;DHT22;3623;47.098;15.446;2023-02-04T14:43:12;3.70;97.10
7163;DHT22;3623;47.098;15.446;2023-02-04T14:45:39;3.70;97.10
7163;DHT22;3623;47.098;15.446;2023-02-04T14:48:07;3.80;97.30
7163;DHT22;3623;47.098;15.446;2023-02-04T14:50:35;3.70;97.30
7163;DHT22;3623;47.098;15.446;2023-02-04T14:53:04;3.60;96.70
7163;DHT22;3623;47.098;15.446;2023-02-04T14:55:31;3.60;97.10
7163;DHT22;3623;47.098;15.446;2023-02-04T14:58:00;3.50;96.40
7163;DHT22;3623;47.098;15.446;2023-02-04T15:00:27;3.60;96.20
7163;DHT22;3623;47.098;15.446;2023-02-04T15:02:54;3.50;96.40
7163;DHT22;3623;47.098;15.446;2023-02-04T15:05:21;3.50;97.40
7163;DHT22;3623;47.098;15.446;2023-02-04T15:07:48;3.40;96.80
7163;DHT22;3623;47.098;15.446;2023-02-04T15:10:15;3.40;97.20
7163;DHT22;3623;47.098;15.446;2023-02-04T15:12:42;3.40;96.90
7163;DHT22;3623;47.098;15.446;2023-02-04T15:15:11;3.30;97.20
7163;DHT22;3623;47.098;15.446;2023-02-04T15:17:38;3.20;97.30
7163;DHT22;3623;47.098;15.446;2023-02-04T15:20:05;3.20;97.20
7163;DHT22;3623;47.098;15.446;2023-02-04T15:22:33;3.10;97.30
7163;DHT22;3623;47.098;15.446;2023-02-04T15:25:01;3.00;97.40
7163;DHT22;3623;47.098;15.446;2023-02-04T15:27:28;3.00;97.30
7163;DHT22;3623;47.098;15.446;2023-02-04T15:29:55;2.90;97.40
7163;DHT22;3623;47.098;15.446;2023-02-04T15:32:23;2.90;97.60
7163;DHT22;3623;47.098;15.446;2023-02-04T15:34:50;2.80;97.80
7163;DHT22;3623;47.098;15.446;2023-02-04T15:37:17;2.80;97.70
7163;DHT22;3623;47.098;15.446;2023-02-04T15:39:44;2.80;97.70
7163;DHT22;3623;47.098;15.446;2023-02-04T15:42:11;2.70;97.80
7163;DHT22;3623;47.098;15.446;2023-02-04T15:44:39;2.70;97.70
7163;DHT22;3623;47.098;15.446;2023-02-04T15:47:06;2.60;97.50
7163;DHT22;3623;47.098;15.446;2023-02-04T15:49:34;2.60;98.40
7163;DHT22;3623;47.098;15.446;2023-02-04T15:52:02;2.60;97.50
7163;DHT22;3623;47.098;15.446;2023-02-04T15:54:29;2.60;97.50
7163;DHT22;3623;47.098;15.446;2023-02-04T15:56:57;2.50;97.10
7163;DHT22;3623;47.098;15.446;2023-02-04T15:59:24;2.50;97.40
7163;DHT22;3623;47.098;15.446;2023-02-04T16:01:51;2.40;97.10
7163;DHT22;3623;47.098;15.446;2023-02-04T16:04:18;2.40;97.60
7163;DHT22;3623;47.098;15.446;2023-02-04T16:06:46;2.30;97.40
7163;DHT22;3623;47.098;15.446;2023-02-04T16:09:14;2.20;97.90
7163;DHT22;3623;47.098;15.446;2023-02-04T16:11:41;2.10;97.80